createdAt,value
2022-10-31T00:02:00.795Z,46.42
2022-10-31T00:04:02.869Z,46.39
2022-10-31T00:06:04.518Z,46.55
2022-10-31T00:08:06.099Z,46.55
2022-10-31T00:10:08.536Z,46.48
2022-10-31T00:12:10.136Z,46.45
2022-10-31T00:14:11.720Z,46.57
2022-10-31T00:16:17.804Z,46.94
2022-10-31T00:18:19.504Z,47.39
2022-10-31T00:20:21.113Z,47.42
2022-10-31T00:22:22.771Z,47.41
2022-10-31T00:24:24.382Z,47.61
2022-10-31T00:26:28.822Z,47.38
2022-10-31T00:28:31.460Z,48.06
2022-10-31T00:30:33.749Z,47.75
2022-10-31T00:32:35.328Z,47.81
2022-10-31T00:34:36.961Z,47.82
2022-10-31T00:36:38.597Z,47.81
2022-10-31T00:38:40.685Z,47.69
2022-10-31T00:40:42.229Z,47.58
2022-10-31T00:42:43.835Z,47.77
2022-10-31T00:44:45.452Z,47.48
2022-10-31T00:46:47.232Z,48.02
2022-10-31T00:48:48.794Z,48.09
2022-10-31T00:50:50.421Z,48.12
2022-10-31T00:52:52.106Z,48.13
2022-10-31T00:54:53.676Z,48.25
2022-10-31T00:56:55.312Z,48.14
2022-10-31T00:58:57.122Z,48.18
2022-10-31T01:00:59.121Z,48.24
2022-10-31T01:03:01.103Z,48.29
2022-10-31T01:05:02.941Z,48.28
2022-10-31T01:07:04.515Z,48.33
2022-10-31T01:09:06.194Z,48.39
2022-10-31T01:11:17.983Z,48.26
2022-10-31T01:13:19.598Z,48.32
2022-10-31T01:15:22.876Z,48.34
2022-10-31T01:17:24.446Z,48.43
2022-10-31T01:19:26.014Z,48.31
2022-10-31T01:21:29.466Z,48.63
2022-10-31T01:23:31.670Z,48.91
2022-10-31T01:25:33.291Z,49.24
2022-10-31T01:27:35.006Z,49.40
2022-10-31T01:29:36.870Z,49.34
2022-10-31T01:31:40.141Z,49.33
2022-10-31T01:33:42.097Z,49.44
2022-10-31T01:35:43.648Z,49.48
2022-10-31T01:37:45.270Z,49.64
2022-10-31T01:39:46.959Z,49.59
2022-10-31T01:41:50.768Z,49.67
2022-10-31T01:43:53.956Z,49.87
2022-10-31T01:45:55.833Z,49.66
2022-10-31T01:47:57.742Z,49.72
2022-10-31T01:50:02.593Z,50.00
2022-10-31T01:52:26.500Z,49.96
2022-10-31T01:54:31.794Z,49.85
2022-10-31T01:56:34.151Z,50.13
2022-10-31T01:58:35.904Z,50.05
2022-10-31T02:00:38.085Z,50.13
2022-10-31T02:02:39.958Z,50.33
2022-10-31T02:04:42.368Z,50.61
2022-10-31T02:06:55.053Z,50.54
2022-10-31T02:08:59.211Z,50.74
2022-10-31T02:11:02.279Z,50.77
2022-10-31T02:13:06.090Z,50.86
2022-10-31T02:15:08.595Z,50.86
2022-10-31T02:17:10.290Z,50.77
2022-10-31T02:19:15.676Z,50.93
2022-10-31T02:21:55.714Z,51.06
2022-10-31T02:24:28.525Z,51.50
2022-10-31T02:26:33.156Z,51.27
2022-10-31T02:29:07.231Z,51.35
2022-10-31T02:31:47.847Z,52.00
2022-10-31T02:33:53.439Z,52.37
2022-10-31T02:36:06.277Z,52.64
2022-10-31T02:38:24.035Z,52.64
2022-10-31T02:40:53.283Z,52.87
2022-10-31T02:43:04.201Z,53.25
2022-10-31T02:45:18.637Z,53.25
2022-10-31T02:47:23.873Z,53.37
2022-10-31T02:49:43.729Z,53.64
2022-10-31T02:51:46.425Z,53.62
2022-10-31T02:53:48.095Z,53.73
2022-10-31T02:56:20.590Z,53.19
2022-10-31T02:58:24.119Z,53.18
2022-10-31T03:00:26.084Z,52.81
2022-10-31T03:02:36.455Z,52.92
2022-10-31T03:05:13.090Z,52.90
2022-10-31T03:07:40.804Z,53.01
2022-10-31T03:09:57.473Z,52.77
2022-10-31T03:12:05.828Z,52.55
2022-10-31T03:14:21.220Z,52.60
2022-10-31T03:16:33.784Z,52.78
2022-10-31T03:18:45.551Z,52.95
2022-10-31T03:20:51.866Z,53.00
2022-10-31T03:22:53.625Z,53.13
2022-10-31T03:24:56.224Z,53.34
2022-10-31T03:26:59.384Z,53.06
2022-10-31T03:29:04.923Z,53.08
2022-10-31T03:31:07.712Z,52.91
2022-10-31T03:33:12.776Z,52.91
2022-10-31T03:35:16.900Z,52.96
2022-10-31T03:37:20.454Z,52.74
2022-10-31T03:39:23.193Z,52.93
2022-10-31T03:41:27.132Z,53.30
2022-10-31T03:43:31.919Z,52.98
2022-10-31T03:45:34.198Z,53.15
2022-10-31T03:47:38.073Z,53.41
2022-10-31T03:49:40.163Z,53.55
2022-10-31T03:51:50.027Z,54.04
2022-10-31T03:54:05.517Z,54.68
2022-10-31T03:56:27.407Z,55.38
2022-10-31T03:58:43.267Z,55.79
2022-10-31T04:00:46.102Z,55.80
2022-10-31T04:02:57.179Z,56.92
2022-10-31T04:05:00.336Z,56.89
2022-10-31T04:07:02.834Z,57.47
2022-10-31T04:09:06.467Z,58.23
2022-10-31T04:11:09.257Z,58.76
2022-10-31T04:13:14.783Z,59.11
2022-10-31T04:15:16.803Z,59.19
2022-10-31T04:17:20.533Z,58.82
2022-10-31T04:19:22.135Z,58.76
2022-10-31T04:21:31.348Z,58.53
2022-10-31T04:23:33.946Z,58.42
2022-10-31T04:25:35.529Z,58.22
2022-10-31T04:27:37.103Z,58.63
2022-10-31T04:29:38.987Z,58.72
2022-10-31T04:31:40.555Z,58.63
2022-10-31T04:33:42.230Z,59.17
2022-10-31T04:35:43.864Z,58.88
2022-10-31T04:37:45.473Z,58.76
2022-10-31T04:39:47.051Z,59.12
2022-10-31T04:41:48.675Z,59.56
2022-10-31T04:43:50.266Z,59.61
2022-10-31T04:45:53.280Z,59.47
2022-10-31T04:47:55.000Z,59.12
2022-10-31T04:49:56.581Z,59.01
2022-10-31T04:51:58.222Z,58.93
2022-10-31T04:53:59.976Z,58.31
2022-10-31T04:56:02.029Z,58.34
2022-10-31T04:58:04.047Z,58.69
2022-10-31T05:00:06.628Z,58.90
2022-10-31T05:02:08.316Z,58.86
2022-10-31T05:04:10.018Z,58.69
2022-10-31T05:06:11.667Z,58.27
2022-10-31T05:08:13.251Z,58.28
2022-10-31T05:10:17.577Z,58.02
2022-10-31T05:12:19.395Z,58.09
2022-10-31T05:14:21.046Z,58.85
2022-10-31T05:16:22.670Z,58.83
2022-10-31T05:18:24.612Z,59.29
2022-10-31T05:20:29.368Z,59.10
2022-10-31T05:22:30.922Z,58.92
2022-10-31T05:24:32.601Z,58.31
2022-10-31T05:26:34.168Z,57.66
2022-10-31T05:28:35.740Z,57.53
2022-10-31T05:30:37.722Z,57.18
2022-10-31T05:32:44.516Z,56.75
2022-10-31T05:34:46.074Z,56.73
2022-10-31T05:36:47.730Z,57.11
2022-10-31T05:38:49.296Z,57.02
2022-10-31T05:40:50.871Z,58.32
2022-10-31T05:42:53.755Z,58.49
2022-10-31T05:44:55.350Z,58.81
2022-10-31T05:46:56.951Z,58.95
2022-10-31T05:49:02.520Z,59.05
2022-10-31T05:51:04.476Z,59.03
2022-10-31T05:53:06.496Z,59.15
2022-10-31T05:55:08.435Z,59.24
2022-10-31T05:57:10.358Z,58.70
2022-10-31T05:59:11.978Z,58.42
2022-10-31T06:01:13.741Z,57.51
2022-10-31T06:03:15.341Z,57.33
2022-10-31T06:05:17.620Z,56.65
2022-10-31T06:07:19.609Z,56.54
2022-10-31T06:09:21.206Z,55.92
2022-10-31T06:11:22.876Z,55.72
2022-10-31T06:13:24.515Z,55.73
2022-10-31T06:15:26.354Z,55.20
2022-10-31T06:17:27.922Z,55.35
2022-10-31T06:19:29.482Z,55.18
2022-10-31T06:21:31.196Z,55.09
2022-10-31T06:23:32.823Z,55.35
2022-10-31T06:25:34.755Z,55.66
2022-10-31T06:27:36.398Z,55.63
2022-10-31T06:29:38.004Z,54.86
2022-10-31T06:31:39.580Z,55.02
2022-10-31T06:33:44.433Z,54.94
2022-10-31T06:35:47.853Z,55.37
2022-10-31T06:37:55.668Z,55.11
2022-10-31T06:39:57.388Z,54.64
2022-10-31T06:41:58.972Z,54.74
2022-10-31T06:44:04.902Z,54.90
2022-10-31T06:46:09.906Z,55.12
2022-10-31T06:48:17.180Z,55.03
2022-10-31T06:50:19.455Z,54.96
2022-10-31T06:52:21.113Z,54.79
2022-10-31T06:54:23.157Z,54.87
2022-10-31T06:56:24.719Z,54.51
2022-10-31T06:58:26.288Z,54.42
2022-10-31T07:00:29.997Z,54.31
2022-10-31T07:02:31.488Z,54.01
2022-10-31T07:04:33.060Z,54.76
2022-10-31T07:06:34.788Z,54.54
2022-10-31T07:08:36.374Z,54.32
2022-10-31T07:10:40.656Z,54.16
2022-10-31T07:12:43.012Z,53.95
2022-10-31T07:14:44.611Z,53.32
2022-10-31T07:16:51.046Z,53.12
2022-10-31T07:18:52.712Z,53.38
2022-10-31T07:20:54.545Z,53.22
2022-10-31T07:22:56.144Z,53.20
2022-10-31T07:24:57.773Z,53.00
2022-10-31T07:29:06.034Z,52.40
2022-10-31T07:31:07.655Z,52.10
2022-10-31T07:33:09.701Z,52.76
2022-10-31T07:35:13.760Z,53.00
2022-10-31T07:37:15.367Z,53.11
2022-10-31T07:39:16.931Z,52.99
2022-10-31T07:41:18.774Z,53.31
2022-10-31T07:43:20.550Z,53.77
2022-10-31T07:45:22.288Z,53.92
2022-10-31T07:47:23.930Z,53.45
2022-10-31T07:49:26.578Z,53.28
2022-10-31T07:51:28.212Z,52.96
2022-10-31T07:53:29.888Z,52.98
2022-10-31T07:55:32.074Z,52.89
2022-10-31T07:57:34.831Z,52.36
2022-10-31T07:59:36.645Z,52.19
2022-10-31T08:01:38.227Z,51.83
2022-10-31T08:03:39.828Z,51.83
2022-10-31T08:05:46.896Z,51.32
2022-10-31T08:07:48.531Z,51.07
2022-10-31T08:09:50.103Z,50.60
2022-10-31T08:11:51.753Z,50.80
2022-10-31T08:13:53.355Z,50.78
2022-10-31T08:15:55.624Z,51.00
2022-10-31T08:17:57.869Z,51.47
2022-10-31T08:19:59.651Z,51.06
2022-10-31T08:22:01.611Z,50.87
2022-10-31T08:24:03.244Z,51.04
2022-10-31T08:26:07.040Z,50.59
2022-10-31T08:28:10.999Z,51.07
2022-10-31T08:30:12.797Z,50.53
2022-10-31T08:32:14.481Z,49.97
2022-10-31T08:34:16.243Z,50.03
2022-10-31T08:36:17.853Z,49.74
2022-10-31T08:38:19.443Z,49.53
2022-10-31T08:40:21.125Z,49.17
2022-10-31T08:42:22.781Z,48.34
2022-10-31T08:44:24.351Z,48.75
2022-10-31T08:46:26.106Z,48.71
2022-10-31T08:48:27.682Z,48.65
2022-10-31T08:50:30.265Z,48.45
2022-10-31T08:52:58.982Z,48.01
2022-10-31T08:54:53.594Z,49.21
2022-10-31T08:56:56.560Z,49.31
2022-10-31T08:58:58.379Z,49.99
2022-10-31T09:01:01.110Z,49.44
2022-10-31T09:03:05.187Z,48.76
2022-10-31T09:05:07.162Z,49.15
2022-10-31T09:07:20.554Z,48.81
2022-10-31T09:09:23.079Z,48.53
2022-10-31T09:11:24.768Z,48.50
2022-10-31T09:13:28.280Z,48.17
2022-10-31T09:15:30.338Z,47.94
2022-10-31T09:17:31.927Z,47.91
2022-10-31T09:19:33.452Z,47.66
2022-10-31T09:21:35.071Z,47.98
2022-10-31T09:23:36.867Z,48.05
2022-10-31T09:25:38.968Z,48.77
2022-10-31T09:27:40.664Z,49.29
2022-10-31T09:29:42.479Z,48.99
2022-10-31T09:31:45.158Z,48.06
2022-10-31T09:33:46.876Z,48.25
2022-10-31T09:35:48.811Z,47.88
2022-10-31T09:38:11.724Z,47.54
2022-10-31T09:40:16.020Z,46.92
2022-10-31T09:42:30.891Z,46.69
2022-10-31T09:45:20.302Z,46.70
2022-10-31T09:47:28.850Z,46.19
2022-10-31T09:49:54.365Z,46.08
2022-10-31T09:52:03.004Z,45.46
2022-10-31T09:54:17.763Z,44.74
2022-10-31T09:56:21.942Z,44.73
2022-10-31T09:58:28.684Z,44.45
2022-10-31T10:00:30.623Z,44.15
2022-10-31T10:02:40.010Z,43.64
2022-10-31T10:05:05.311Z,43.28
2022-10-31T10:07:17.857Z,43.68
2022-10-31T10:09:23.442Z,43.67
2022-10-31T10:11:42.268Z,43.23
2022-10-31T10:13:56.161Z,42.89
2022-10-31T10:16:24.886Z,42.70
2022-10-31T10:18:48.162Z,42.21
2022-10-31T10:20:49.697Z,42.00
2022-10-31T10:23:18.741Z,41.52
2022-10-31T10:25:25.446Z,40.59
2022-10-31T10:27:35.792Z,40.83
2022-10-31T10:30:00.418Z,39.97
2022-10-31T10:32:07.439Z,39.63
2022-10-31T10:34:18.686Z,38.92
2022-10-31T10:36:32.989Z,38.89
2022-10-31T10:38:38.779Z,38.85
2022-10-31T10:40:41.380Z,39.13
2022-10-31T10:43:05.198Z,38.61
2022-10-31T10:45:39.341Z,38.99
2022-10-31T10:47:44.024Z,39.35
2022-10-31T10:49:52.287Z,39.34
2022-10-31T10:52:50.473Z,38.95
2022-10-31T10:55:20.428Z,39.24
2022-10-31T10:57:56.071Z,39.69
2022-10-31T11:00:00.179Z,39.00
2022-10-31T11:02:01.794Z,38.55
2022-10-31T11:04:03.880Z,38.31
2022-10-31T11:06:05.687Z,38.09
2022-10-31T11:08:07.811Z,37.91
2022-10-31T11:10:17.259Z,37.00
2022-10-31T11:12:22.747Z,37.13
2022-10-31T11:14:24.846Z,37.12
2022-10-31T11:16:41.834Z,37.49
2022-10-31T11:18:46.642Z,38.19
2022-10-31T11:20:54.512Z,38.32
2022-10-31T11:23:04.194Z,37.64
2022-10-31T11:25:21.123Z,37.48
2022-10-31T11:27:24.903Z,37.20
2022-10-31T11:29:26.969Z,36.92
2022-10-31T11:31:28.698Z,36.83
2022-10-31T11:33:40.159Z,37.44
2022-10-31T11:35:41.834Z,37.25
2022-10-31T11:37:44.794Z,37.52
2022-10-31T11:39:54.218Z,37.13
2022-10-31T11:41:56.382Z,37.20
2022-10-31T11:44:00.847Z,37.84
2022-10-31T11:46:10.987Z,37.40
2022-10-31T11:48:18.275Z,37.36
2022-10-31T11:50:30.017Z,37.35
2022-10-31T11:52:33.014Z,37.18
2022-10-31T11:54:45.871Z,37.03
2022-10-31T11:56:47.685Z,36.95
2022-10-31T11:59:07.183Z,37.00
2022-10-31T12:01:27.769Z,36.78
2022-10-31T12:03:56.743Z,36.64
2022-10-31T12:06:16.403Z,36.91
2022-10-31T12:08:18.020Z,37.08
2022-10-31T12:10:23.089Z,37.28
2022-10-31T12:12:30.804Z,37.19
2022-10-31T12:14:44.588Z,37.06
2022-10-31T12:17:03.949Z,36.58
2022-10-31T12:19:30.531Z,36.66
2022-10-31T12:21:51.228Z,36.79
2022-10-31T12:24:02.840Z,36.64
2022-10-31T12:26:41.989Z,36.34
2022-10-31T12:28:58.719Z,36.58
2022-10-31T12:31:12.627Z,36.55
2022-10-31T12:33:23.058Z,36.66
2022-10-31T12:35:35.282Z,36.34
2022-10-31T12:37:43.263Z,36.69
2022-10-31T12:40:04.057Z,37.16
2022-10-31T12:42:43.490Z,37.63
2022-10-31T12:44:56.842Z,37.99
2022-10-31T12:46:58.468Z,37.75
2022-10-31T12:49:24.408Z,37.41
2022-10-31T12:51:47.452Z,37.36
2022-10-31T12:54:14.841Z,37.54
2022-10-31T12:56:54.427Z,37.37
2022-10-31T12:59:23.785Z,37.45
2022-10-31T13:01:31.271Z,37.71
2022-10-31T13:03:54.960Z,36.94
2022-10-31T13:05:59.562Z,36.92
2022-10-31T13:08:11.267Z,36.98
2022-10-31T13:10:35.973Z,36.50
2022-10-31T13:12:37.884Z,36.72
2022-10-31T13:14:43.379Z,36.91
2022-10-31T13:16:47.873Z,36.74
2022-10-31T13:19:00.154Z,37.09
2022-10-31T13:21:05.907Z,37.19
2022-10-31T13:23:30.052Z,37.50
2022-10-31T13:25:40.149Z,37.52
2022-10-31T13:28:06.433Z,37.57
2022-10-31T13:30:21.271Z,37.35
2022-10-31T13:32:22.853Z,37.46
2022-10-31T13:34:31.849Z,37.68
2022-10-31T13:36:40.919Z,37.34
2022-10-31T13:38:51.717Z,37.25
2022-10-31T13:41:00.624Z,37.14
2022-10-31T13:43:30.857Z,37.26
2022-10-31T13:45:32.511Z,37.25
2022-10-31T13:47:34.212Z,36.77
2022-10-31T13:49:35.863Z,37.23
2022-10-31T13:51:37.472Z,36.75
2022-10-31T13:54:00.793Z,36.85
2022-10-31T13:56:21.535Z,36.71
2022-10-31T13:58:30.843Z,36.63
2022-10-31T14:00:37.294Z,36.77
2022-10-31T14:02:46.750Z,36.86
2022-10-31T14:07:16.785Z,37.09
2022-10-31T14:09:30.824Z,37.24
2022-10-31T14:11:36.109Z,37.05
2022-10-31T14:13:46.773Z,36.46
2022-10-31T14:16:22.578Z,36.61
2022-10-31T14:18:31.485Z,36.53
2022-10-31T14:20:43.943Z,36.63
2022-10-31T14:22:45.697Z,36.45
2022-10-31T14:24:47.359Z,36.62
2022-10-31T14:27:02.403Z,36.63
2022-10-31T14:29:24.094Z,36.59
2022-10-31T14:31:42.656Z,36.66
2022-10-31T14:33:45.304Z,36.82
2022-10-31T14:36:00.063Z,36.64
2022-10-31T14:38:10.991Z,36.97
2022-10-31T14:40:18.719Z,36.80
2022-10-31T14:42:34.285Z,37.19
2022-10-31T14:45:02.156Z,37.10
2022-10-31T14:47:16.415Z,37.47
2022-10-31T14:49:26.619Z,37.03
2022-10-31T14:51:48.590Z,37.59
2022-10-31T14:53:57.563Z,37.90
2022-10-31T14:56:04.223Z,37.70
2022-10-31T14:58:09.095Z,38.35
2022-10-31T15:00:19.465Z,38.63
2022-10-31T15:02:25.821Z,38.37
2022-10-31T15:04:29.847Z,38.82
2022-10-31T15:06:42.089Z,39.06
2022-10-31T15:08:49.813Z,39.39
2022-10-31T15:10:51.389Z,39.69
2022-10-31T15:12:53.642Z,39.84
2022-10-31T15:14:56.877Z,40.20
2022-10-31T15:17:00.179Z,40.54
2022-10-31T15:19:23.239Z,41.14
2022-10-31T15:21:26.417Z,41.09
2022-10-31T15:23:30.175Z,41.65
2022-10-31T15:25:34.828Z,41.90
2022-10-31T15:27:36.608Z,41.80
2022-10-31T15:29:48.858Z,42.03
2022-10-31T15:32:02.512Z,42.24
2022-10-31T15:34:16.915Z,42.42
2022-10-31T15:36:27.712Z,42.59
2022-10-31T15:38:31.012Z,43.02
2022-10-31T15:40:32.653Z,43.13
2022-10-31T15:42:40.510Z,43.10
2022-10-31T15:44:42.949Z,43.83
2022-10-31T15:47:03.540Z,44.13
2022-10-31T15:49:05.249Z,44.17
2022-10-31T15:51:07.081Z,44.09
2022-10-31T15:53:27.479Z,44.44
2022-10-31T15:55:33.437Z,44.53
2022-10-31T15:57:35.096Z,44.75
2022-10-31T15:59:43.254Z,44.96
2022-10-31T16:02:02.803Z,44.98
2022-10-31T16:04:13.631Z,45.11
2022-10-31T16:06:22.153Z,45.34
2022-10-31T16:08:27.135Z,45.40
2022-10-31T16:10:34.225Z,45.43
2022-10-31T16:12:37.876Z,45.45
2022-10-31T16:14:40.016Z,45.76
2022-10-31T16:16:49.292Z,45.59
2022-10-31T16:18:52.571Z,45.81
2022-10-31T16:20:56.526Z,45.35
2022-10-31T16:22:59.103Z,45.16
2022-10-31T16:25:07.263Z,45.28
2022-10-31T16:27:26.531Z,45.37
2022-10-31T16:29:34.055Z,45.34
2022-10-31T16:31:40.193Z,45.07
2022-10-31T16:33:42.054Z,44.90
2022-10-31T16:35:43.619Z,44.94
2022-10-31T16:37:45.414Z,45.04
2022-10-31T16:39:46.957Z,45.26
2022-10-31T16:41:56.120Z,45.22
2022-10-31T16:43:57.715Z,45.37
2022-10-31T16:45:59.257Z,45.47
2022-10-31T16:48:10.908Z,45.47
2022-10-31T16:50:21.879Z,45.82
2022-10-31T16:52:23.455Z,47.65
2022-10-31T16:54:25.257Z,48.83
2022-10-31T16:56:34.071Z,49.50
2022-10-31T16:58:36.616Z,49.77
2022-10-31T17:00:39.153Z,49.74
2022-10-31T17:02:40.806Z,49.39
2022-10-31T17:04:42.657Z,49.02
2022-10-31T17:06:44.366Z,48.58
2022-10-31T17:08:45.951Z,48.55
2022-10-31T17:10:48.314Z,48.41
2022-10-31T17:12:50.597Z,48.48
2022-10-31T17:14:52.803Z,47.93
2022-10-31T17:16:56.974Z,47.79
2022-10-31T17:18:58.758Z,47.91
2022-10-31T17:21:02.075Z,47.96
2022-10-31T17:23:04.035Z,47.89
2022-10-31T17:25:10.443Z,47.80
2022-10-31T17:27:12.091Z,47.88
2022-10-31T17:29:13.688Z,47.79
2022-10-31T17:31:24.015Z,48.05
2022-10-31T17:33:25.696Z,47.91
2022-10-31T17:35:27.264Z,47.78
2022-10-31T17:37:28.954Z,47.94
2022-10-31T17:39:30.507Z,47.90
2022-10-31T17:41:32.146Z,48.49
2022-10-31T17:43:33.773Z,48.57
2022-10-31T17:45:35.405Z,48.26
2022-10-31T17:47:38.389Z,48.04
2022-10-31T17:49:40.115Z,47.88
2022-10-31T17:51:41.737Z,47.63
2022-10-31T17:53:43.384Z,47.79
2022-10-31T17:55:45.206Z,47.55
2022-10-31T17:57:46.832Z,47.46
2022-10-31T17:59:48.365Z,47.28
2022-10-31T18:01:50.317Z,47.42
2022-10-31T18:03:51.990Z,47.43
2022-10-31T18:05:58.326Z,47.62
2022-10-31T18:08:03.668Z,47.74
2022-10-31T18:10:06.604Z,47.88
2022-10-31T18:12:08.306Z,47.79
2022-10-31T18:14:10.604Z,47.91
2022-10-31T18:16:15.028Z,47.90
2022-10-31T18:18:16.868Z,48.23
2022-10-31T18:20:18.443Z,48.11
2022-10-31T18:22:20.050Z,48.19
2022-10-31T18:24:22.048Z,48.23
2022-10-31T18:26:24.616Z,48.19
2022-10-31T18:28:26.251Z,48.36
2022-10-31T18:30:27.848Z,48.37
2022-10-31T18:32:30.006Z,48.33
2022-10-31T18:34:31.624Z,48.21
2022-10-31T18:36:33.357Z,48.30
2022-10-31T18:38:38.506Z,48.53
2022-10-31T18:40:40.163Z,48.87
2022-10-31T18:42:41.984Z,48.61
2022-10-31T18:44:43.554Z,48.76
2022-10-31T18:46:45.135Z,48.94
2022-10-31T18:48:46.714Z,48.96
2022-10-31T18:50:48.354Z,48.80
2022-10-31T18:52:49.938Z,49.04
2022-10-31T18:54:51.593Z,49.13
2022-10-31T18:56:53.198Z,48.74
2022-10-31T18:58:54.876Z,49.05
2022-10-31T19:00:56.566Z,49.12
2022-10-31T19:02:58.342Z,49.47
2022-10-31T19:05:00.051Z,49.18
2022-10-31T19:07:01.744Z,49.32
2022-10-31T19:09:09.501Z,49.43
2022-10-31T19:11:13.657Z,49.32
2022-10-31T19:13:15.251Z,49.38
2022-10-31T19:15:16.857Z,49.42
2022-10-31T19:17:18.851Z,49.43
2022-10-31T19:19:21.009Z,49.63
2022-10-31T19:21:23.344Z,49.54
2022-10-31T19:23:25.036Z,49.71
2022-10-31T19:25:26.662Z,49.69
2022-10-31T19:27:28.367Z,49.86
2022-10-31T19:29:30.594Z,49.86
2022-10-31T19:31:32.194Z,49.99
2022-10-31T19:33:36.159Z,50.13
2022-10-31T19:35:38.108Z,50.23
2022-10-31T19:37:40.423Z,50.19
2022-10-31T19:39:44.364Z,50.30
2022-10-31T19:41:46.116Z,50.44
2022-10-31T19:43:48.263Z,50.50
2022-10-31T19:46:00.287Z,50.50
2022-10-31T19:48:02.262Z,50.50
2022-10-31T19:50:05.069Z,50.79
2022-10-31T19:52:06.763Z,50.93
2022-10-31T19:54:08.466Z,51.00
2022-10-31T19:56:15.308Z,50.91
2022-10-31T19:58:17.111Z,51.08
2022-10-31T20:00:19.216Z,51.24
2022-10-31T20:02:21.065Z,51.36
2022-10-31T20:04:22.774Z,51.38
2022-10-31T20:06:39.678Z,51.30
2022-10-31T20:08:41.732Z,51.54
2022-10-31T20:10:54.682Z,51.69
2022-10-31T20:12:56.303Z,51.81
2022-10-31T20:14:58.110Z,51.65
2022-10-31T20:16:59.720Z,51.91
2022-10-31T20:19:01.416Z,52.13
2022-10-31T20:21:11.824Z,52.20
2022-10-31T20:23:13.498Z,52.13
2022-10-31T20:25:15.138Z,52.30
2022-10-31T20:27:16.754Z,52.38
2022-10-31T20:29:19.493Z,52.54
2022-10-31T20:31:23.277Z,52.71
2022-10-31T20:33:24.758Z,52.73
2022-10-31T20:35:26.450Z,53.09
2022-10-31T20:37:27.986Z,53.17
2022-10-31T20:39:29.707Z,53.30
2022-10-31T20:41:31.476Z,53.73
2022-10-31T20:43:34.036Z,53.76
2022-10-31T20:45:35.614Z,53.85
2022-10-31T20:47:37.212Z,53.94
2022-10-31T20:49:39.437Z,53.78
2022-10-31T20:51:41.076Z,53.83
2022-10-31T20:53:42.993Z,53.58
2022-10-31T20:55:44.763Z,53.39
2022-10-31T20:57:46.340Z,53.40
2022-10-31T20:59:48.030Z,53.44
2022-10-31T21:01:49.728Z,53.47
2022-10-31T21:03:51.957Z,53.49
2022-10-31T21:05:59.421Z,53.49
2022-10-31T21:08:00.980Z,53.60
2022-10-31T21:10:02.675Z,53.67
2022-10-31T21:12:04.306Z,53.73
2022-10-31T21:14:05.931Z,53.78
2022-10-31T21:16:10.434Z,53.61
2022-10-31T21:18:12.811Z,54.24
2022-10-31T21:20:14.429Z,54.31
2022-10-31T21:22:16.058Z,54.61
2022-10-31T21:24:20.813Z,55.01
2022-10-31T21:26:24.319Z,55.04
2022-10-31T21:28:25.886Z,55.10
2022-10-31T21:30:27.470Z,55.26
2022-10-31T21:32:29.083Z,55.34
2022-10-31T21:34:30.686Z,55.39
2022-10-31T21:36:32.551Z,55.35
2022-10-31T21:38:34.999Z,55.20
2022-10-31T21:40:36.597Z,55.18
2022-10-31T21:42:38.202Z,55.68
2022-10-31T21:44:40.453Z,55.31
2022-10-31T21:46:42.205Z,55.23
2022-10-31T21:48:44.231Z,55.32
2022-10-31T21:50:46.061Z,55.42
2022-10-31T21:52:47.641Z,55.61
2022-10-31T21:54:49.225Z,55.94
2022-10-31T21:56:51.830Z,56.21
2022-10-31T21:58:53.531Z,56.00
2022-10-31T22:00:55.166Z,56.16
2022-10-31T22:02:56.858Z,56.20
2022-10-31T22:04:58.543Z,56.28
2022-10-31T22:07:00.211Z,56.33
2022-10-31T22:09:04.487Z,56.50
2022-10-31T22:11:13.659Z,56.56
2022-10-31T22:13:15.362Z,57.01
2022-10-31T22:15:22.624Z,57.08
2022-10-31T22:17:24.222Z,56.97
2022-10-31T22:19:25.917Z,56.94
2022-10-31T22:21:28.267Z,57.05
2022-10-31T22:23:30.083Z,56.75
2022-10-31T22:25:31.722Z,56.69
2022-10-31T22:27:33.314Z,57.07
2022-10-31T22:29:35.555Z,56.93
2022-10-31T22:31:40.145Z,56.95
2022-10-31T22:33:41.884Z,56.52
2022-10-31T22:35:43.478Z,56.76
2022-10-31T22:37:45.183Z,56.81
2022-10-31T22:39:47.058Z,57.41
2022-10-31T22:41:48.741Z,58.07
2022-10-31T22:43:50.938Z,58.31
2022-10-31T22:46:00.424Z,59.02
2022-10-31T22:48:02.354Z,58.88
2022-10-31T22:50:04.671Z,59.20
2022-10-31T22:52:06.372Z,59.45
2022-10-31T22:54:12.729Z,59.09
2022-10-31T22:56:19.482Z,59.32
2022-10-31T22:58:21.174Z,59.33
2022-10-31T23:00:22.851Z,59.00
2022-10-31T23:02:24.565Z,58.72
2022-10-31T23:04:26.193Z,59.03
2022-10-31T23:06:30.341Z,58.92
2022-10-31T23:08:34.252Z,58.86
2022-10-31T23:10:41.321Z,59.45
2022-10-31T23:13:01.758Z,59.38
2022-10-31T23:15:03.684Z,59.35
2022-10-31T23:17:05.295Z,59.02
2022-10-31T23:19:08.146Z,59.23
2022-10-31T23:21:29.743Z,59.72
2022-10-31T23:23:38.282Z,59.64
2022-10-31T23:25:58.697Z,60.14
2022-10-31T23:28:00.258Z,60.40
2022-10-31T23:30:02.176Z,60.16
2022-10-31T23:32:05.141Z,59.50
2022-10-31T23:34:06.759Z,59.10
2022-10-31T23:36:08.791Z,58.87
2022-10-31T23:38:10.547Z,59.05
2022-10-31T23:40:12.643Z,59.31
2022-10-31T23:42:14.398Z,59.16
2022-10-31T23:44:15.992Z,59.00
2022-10-31T23:46:17.587Z,58.92
2022-10-31T23:48:19.350Z,58.94
2022-10-31T23:50:21.025Z,58.97
2022-10-31T23:52:22.709Z,58.88
2022-10-31T23:54:25.212Z,58.91
2022-10-31T23:56:26.890Z,59.10
2022-10-31T23:58:28.430Z,59.00
